createdAt,value
2023-05-19T00:01:14.464Z,10.29
2023-05-19T00:06:16.510Z,10.21
2023-05-19T00:11:18.415Z,10.12
2023-05-19T00:16:20.564Z,10.13
2023-05-19T00:21:22.327Z,10.13
2023-05-19T00:26:25.020Z,10.02
2023-05-19T00:31:34.374Z,10.07
2023-05-19T00:36:36.167Z,10.00
2023-05-19T00:41:37.785Z,9.99
2023-05-19T00:46:39.387Z,9.92
2023-05-19T00:51:41.164Z,9.87
2023-05-19T00:56:42.796Z,9.87
2023-05-19T01:01:44.472Z,9.89
2023-05-19T01:06:49.485Z,9.89
2023-05-19T01:11:51.132Z,9.81
2023-05-19T01:17:35.924Z,9.79
2023-05-19T01:23:05.449Z,9.73
2023-05-19T01:28:31.335Z,9.62
2023-05-19T01:33:33.936Z,9.67
2023-05-19T01:38:38.545Z,9.63
2023-05-19T01:43:40.415Z,9.53
2023-05-19T01:48:44.584Z,9.52
2023-05-19T01:53:46.222Z,9.33
2023-05-19T01:58:55.955Z,9.39
2023-05-19T02:04:25.024Z,9.12
2023-05-19T02:09:29.533Z,9.00
2023-05-19T02:14:45.561Z,9.13
2023-05-19T02:19:47.362Z,8.92
2023-05-19T02:24:49.624Z,8.84
2023-05-19T02:29:51.253Z,8.95
2023-05-19T02:34:52.821Z,8.61
2023-05-19T02:39:54.763Z,8.30
2023-05-19T02:44:56.412Z,8.12
2023-05-19T02:49:57.986Z,8.20
2023-05-19T02:54:59.628Z,8.33
2023-05-19T03:00:01.192Z,8.23
2023-05-19T03:05:03.164Z,8.13
2023-05-19T03:10:05.359Z,8.26
2023-05-19T03:15:07.377Z,8.21
2023-05-19T03:20:09.431Z,8.02
2023-05-19T03:25:11.073Z,8.02
2023-05-19T03:30:13.432Z,7.88
2023-05-19T03:35:27.799Z,7.67
2023-05-19T03:40:29.391Z,7.56
2023-05-19T03:45:37.921Z,7.53
2023-05-19T03:50:57.351Z,7.62
2023-05-19T03:56:01.606Z,7.54
2023-05-19T04:01:03.167Z,7.40
2023-05-19T04:06:05.587Z,7.45
2023-05-19T04:11:07.284Z,7.58
2023-05-19T04:16:08.966Z,7.78
2023-05-19T04:21:10.560Z,8.00
2023-05-19T04:26:13.203Z,8.09
2023-05-19T04:31:15.360Z,8.17
2023-05-19T04:36:17.949Z,8.30
2023-05-19T04:41:19.710Z,8.47
2023-05-19T04:46:21.326Z,8.62
2023-05-19T04:51:23.604Z,8.92
2023-05-19T04:56:25.549Z,9.07
2023-05-19T05:01:27.366Z,9.28
2023-05-19T05:06:30.388Z,9.57
2023-05-19T05:11:33.092Z,10.03
2023-05-19T05:16:36.265Z,10.77
2023-05-19T05:21:38.322Z,12.05
2023-05-19T05:26:43.082Z,12.84
2023-05-19T05:31:44.927Z,13.44
2023-05-19T05:36:46.614Z,14.08
2023-05-19T05:41:48.564Z,14.99
2023-05-19T05:46:51.320Z,15.66
2023-05-19T05:52:05.052Z,15.73
2023-05-19T05:57:10.833Z,16.33
2023-05-19T06:02:13.441Z,16.41
2023-05-19T06:07:15.239Z,17.52
2023-05-19T06:12:16.982Z,18.17
2023-05-19T06:17:22.681Z,18.63
2023-05-19T06:22:26.279Z,19.00
2023-05-19T06:27:28.289Z,19.07
2023-05-19T06:32:31.380Z,19.56
2023-05-19T06:37:34.368Z,18.90
2023-05-19T06:42:36.033Z,18.87
2023-05-19T06:47:55.733Z,18.78
2023-05-19T06:52:57.456Z,19.11
2023-05-19T06:58:00.596Z,19.28
2023-05-19T07:03:03.549Z,18.65
2023-05-19T07:08:05.544Z,20.32
2023-05-19T07:13:07.520Z,20.51
2023-05-19T07:18:10.906Z,19.86
2023-05-19T07:23:12.702Z,21.96
2023-05-19T07:28:14.392Z,21.39
2023-05-19T07:33:16.033Z,19.74
2023-05-19T07:38:17.730Z,21.15
2023-05-19T07:43:19.314Z,21.15
2023-05-19T07:48:20.907Z,22.80
2023-05-19T07:53:22.531Z,23.33
2023-05-19T07:58:24.114Z,24.85
2023-05-19T08:03:26.527Z,23.83
2023-05-19T08:08:28.300Z,23.77
2023-05-19T08:13:30.582Z,22.30
2023-05-19T08:18:32.177Z,22.78
2023-05-19T08:23:34.182Z,23.15
2023-05-19T08:28:35.742Z,23.35
2023-05-19T08:33:37.404Z,21.69
2023-05-19T08:38:39.320Z,23.67
2023-05-19T08:43:40.891Z,24.76
2023-05-19T08:48:44.337Z,22.26
2023-05-19T08:53:50.792Z,22.59
2023-05-19T08:58:52.983Z,24.11
2023-05-19T09:03:55.059Z,25.23
2023-05-19T09:08:56.878Z,25.46
2023-05-19T09:13:58.512Z,25.76
2023-05-19T09:19:00.332Z,26.20
2023-05-19T09:24:06.606Z,27.48
2023-05-19T09:29:16.356Z,25.92
2023-05-19T09:34:18.929Z,25.72
2023-05-19T09:39:22.942Z,26.21
2023-05-19T09:44:26.136Z,25.68
2023-05-19T09:49:29.370Z,27.91
2023-05-19T09:54:31.363Z,27.14
2023-05-19T09:59:33.950Z,25.14
2023-05-19T10:04:36.161Z,24.93
2023-05-19T10:09:39.257Z,25.66
2023-05-19T10:14:41.156Z,26.97
2023-05-19T10:19:43.798Z,27.49
2023-05-19T10:24:45.366Z,27.38
2023-05-19T10:29:49.840Z,24.22
2023-05-19T10:34:57.604Z,22.88
2023-05-19T10:40:00.050Z,23.21
2023-05-19T10:45:17.222Z,24.81
2023-05-19T10:50:20.324Z,24.12
2023-05-19T10:55:51.856Z,23.93
2023-05-19T11:01:00.801Z,24.08
2023-05-19T11:06:27.173Z,24.34
2023-05-19T11:11:46.918Z,24.67
2023-05-19T11:16:50.635Z,24.24
2023-05-19T11:21:53.359Z,24.65
2023-05-19T11:26:54.910Z,25.19
2023-05-19T11:31:56.610Z,24.40
2023-05-19T11:36:59.036Z,24.38
2023-05-19T11:42:00.633Z,25.66
2023-05-19T11:47:02.392Z,26.54
2023-05-19T11:52:04.772Z,28.23
2023-05-19T11:57:08.996Z,25.38
2023-05-19T12:02:18.092Z,24.17
2023-05-19T12:07:22.531Z,24.63
2023-05-19T12:12:24.158Z,27.09
2023-05-19T12:17:25.845Z,27.79
2023-05-19T12:22:27.548Z,25.92
2023-05-19T12:27:29.150Z,26.73
2023-05-19T12:32:33.870Z,27.36
2023-05-19T12:37:36.619Z,26.85
2023-05-19T12:42:38.275Z,26.81
2023-05-19T12:47:40.056Z,26.54
2023-05-19T12:52:44.566Z,27.92
2023-05-19T12:57:50.544Z,27.82
2023-05-19T13:03:01.530Z,26.55
2023-05-19T13:08:06.284Z,26.94
2023-05-19T13:13:09.040Z,28.98
2023-05-19T13:18:12.504Z,29.84
2023-05-19T13:23:14.405Z,29.05
2023-05-19T13:28:16.136Z,30.15
2023-05-19T13:33:17.766Z,25.90
2023-05-19T13:38:19.379Z,25.34
2023-05-19T13:43:20.925Z,25.49
2023-05-19T13:48:22.568Z,26.49
2023-05-19T13:53:24.153Z,26.92
2023-05-19T13:58:25.932Z,28.26
2023-05-19T14:03:27.546Z,27.54
2023-05-19T14:08:29.230Z,25.59
2023-05-19T14:13:33.390Z,26.35
2023-05-19T14:18:36.966Z,27.13
2023-05-19T14:23:38.564Z,25.99
2023-05-19T14:28:40.440Z,25.19
2023-05-19T14:33:42.018Z,24.34
2023-05-19T14:38:43.706Z,25.59
2023-05-19T14:43:46.972Z,27.35
2023-05-19T14:48:48.681Z,28.73
2023-05-19T14:53:50.244Z,28.70
2023-05-19T14:58:51.847Z,27.86
2023-05-19T15:03:53.501Z,26.62
2023-05-19T15:08:55.289Z,25.76
2023-05-19T15:13:56.859Z,26.10
2023-05-19T15:18:58.590Z,29.20
2023-05-19T15:24:00.164Z,28.86
2023-05-19T15:29:01.835Z,26.32
2023-05-19T15:34:03.373Z,25.02
2023-05-19T15:39:04.953Z,24.22
2023-05-19T15:44:06.587Z,25.69
2023-05-19T15:49:08.168Z,26.87
2023-05-19T15:54:10.109Z,28.52
2023-05-19T15:59:11.710Z,28.18
2023-05-19T16:04:13.416Z,27.46
2023-05-19T16:09:15.127Z,26.85
2023-05-19T16:14:16.717Z,27.36
2023-05-19T16:19:18.325Z,27.95
2023-05-19T16:24:19.926Z,28.64
2023-05-19T16:29:21.638Z,28.16
2023-05-19T16:34:23.209Z,26.01
2023-05-19T16:39:24.765Z,25.05
2023-05-19T16:44:26.355Z,24.26
2023-05-19T16:49:27.905Z,24.32
2023-05-19T16:54:29.500Z,24.07
2023-05-19T16:59:31.076Z,23.64
2023-05-19T17:04:32.700Z,23.66
2023-05-19T17:09:34.369Z,23.22
2023-05-19T17:14:35.927Z,23.02
2023-05-19T17:19:37.512Z,23.30
2023-05-19T17:24:39.098Z,23.08
2023-05-19T17:29:40.768Z,23.15
2023-05-19T17:34:42.331Z,22.71
2023-05-19T17:39:43.860Z,22.56
2023-05-19T17:44:45.374Z,22.24
2023-05-19T17:49:46.929Z,22.03
2023-05-19T17:54:48.820Z,22.12
2023-05-19T17:59:50.874Z,23.00
2023-05-19T18:04:53.166Z,23.30
2023-05-19T18:09:56.062Z,23.60
2023-05-19T18:14:57.707Z,23.26
2023-05-19T18:19:59.327Z,23.12
2023-05-19T18:25:00.876Z,22.92
2023-05-19T18:30:02.631Z,22.79
2023-05-19T18:35:04.671Z,22.63
2023-05-19T18:40:07.161Z,22.48
2023-05-19T18:45:09.161Z,22.20
2023-05-19T18:50:10.852Z,22.20
2023-05-19T18:55:12.498Z,22.02
2023-05-19T19:00:14.411Z,21.76
2023-05-19T19:05:16.129Z,21.69
2023-05-19T19:10:17.804Z,21.32
2023-05-19T19:15:19.352Z,21.11
2023-05-19T19:20:20.937Z,20.82
2023-05-19T19:25:23.642Z,20.67
2023-05-19T19:30:25.419Z,20.49
2023-05-19T19:35:27.048Z,20.30
2023-05-19T19:40:28.598Z,20.16
2023-05-19T19:45:30.194Z,20.07
2023-05-19T19:50:32.442Z,19.87
2023-05-19T19:55:34.320Z,19.77
2023-05-19T20:00:35.988Z,19.65
2023-05-19T20:05:37.692Z,19.47
2023-05-19T20:10:39.278Z,19.34
2023-05-19T20:15:40.874Z,19.13
2023-05-19T20:20:42.958Z,18.98
2023-05-19T20:26:02.425Z,18.83
2023-05-19T20:31:06.131Z,18.66
2023-05-19T20:36:07.785Z,18.46
2023-05-19T20:41:09.348Z,18.38
2023-05-19T20:46:10.913Z,18.19
2023-05-19T20:51:12.531Z,18.17
2023-05-19T20:56:14.173Z,18.03
2023-05-19T21:01:15.776Z,17.91
2023-05-19T21:06:17.410Z,17.76
2023-05-19T21:11:18.975Z,17.77
2023-05-19T21:16:20.572Z,17.71
2023-05-19T21:21:22.246Z,17.60
2023-05-19T21:26:23.831Z,17.49
2023-05-19T21:31:25.449Z,17.37
2023-05-19T21:36:27.082Z,17.21
2023-05-19T21:41:28.619Z,17.19
2023-05-19T21:46:30.243Z,17.19
2023-05-19T21:51:31.899Z,17.03
2023-05-19T21:56:33.490Z,16.94
2023-05-19T22:01:35.101Z,16.88
2023-05-19T22:06:36.717Z,16.74
2023-05-19T22:11:38.969Z,16.58
2023-05-19T22:16:40.560Z,16.53
2023-05-19T22:21:42.264Z,16.31
2023-05-19T22:26:44.086Z,16.31
2023-05-19T22:31:45.889Z,16.28
2023-05-19T22:36:47.481Z,16.38
2023-05-19T22:41:49.079Z,16.21
2023-05-19T22:46:50.720Z,15.99
2023-05-19T22:51:52.267Z,16.07
2023-05-19T22:56:53.816Z,16.05
2023-05-19T23:01:55.465Z,16.04
2023-05-19T23:06:57.014Z,15.93
2023-05-19T23:11:58.744Z,15.82
2023-05-19T23:17:00.410Z,15.89
2023-05-19T23:22:02.056Z,15.82
2023-05-19T23:27:03.760Z,15.91
2023-05-19T23:32:05.624Z,15.88
2023-05-19T23:37:07.203Z,15.90
2023-05-19T23:42:08.778Z,15.82
2023-05-19T23:47:10.547Z,15.71
2023-05-19T23:52:12.266Z,15.63
2023-05-19T23:57:13.849Z,15.50
